sensor_id;sensor_type;location;lat;lon;timestamp;temperature;humidity
16781;DHT22;8507;50.056;8.248;2023-08-06T00:01:49;18.20;99.90
16781;DHT22;8507;50.056;8.248;2023-08-06T00:04:14;18.20;99.90
16781;DHT22;8507;50.056;8.248;2023-08-06T00:06:40;18.10;99.90
16781;DHT22;8507;50.056;8.248;2023-08-06T00:09:06;18.10;99.90
16781;DHT22;8507;50.056;8.248;2023-08-06T00:11:31;18.10;99.90
16781;DHT22;8507;50.056;8.248;2023-08-06T00:13:57;18.10;99.90
16781;DHT22;8507;50.056;8.248;2023-08-06T00:16:22;18.10;99.90
16781;DHT22;8507;50.056;8.248;2023-08-06T00:18:48;18.10;99.90
16781;DHT22;8507;50.056;8.248;2023-08-06T00:21:14;18.00;99.90
16781;DHT22;8507;50.056;8.248;2023-08-06T00:23:40;18.00;99.90
16781;DHT22;8507;50.056;8.248;2023-08-06T00:26:06;18.00;99.90
16781;DHT22;8507;50.056;8.248;2023-08-06T00:28:31;18.00;99.90
16781;DHT22;8507;50.056;8.248;2023-08-06T00:30:57;18.10;99.90
16781;DHT22;8507;50.056;8.248;2023-08-06T00:33:23;18.10;99.90
16781;DHT22;8507;50.056;8.248;2023-08-06T00:35:49;18.10;99.90
16781;DHT22;8507;50.056;8.248;2023-08-06T00:38:15;18.10;99.90
16781;DHT22;8507;50.056;8.248;2023-08-06T00:40:40;18.10;99.90
16781;DHT22;8507;50.056;8.248;2023-08-06T00:43:06;18.10;99.90
16781;DHT22;8507;50.056;8.248;2023-08-06T00:45:34;18.20;99.90
16781;DHT22;8507;50.056;8.248;2023-08-06T00:48:01;18.20;99.90
16781;DHT22;8507;50.056;8.248;2023-08-06T00:50:27;18.20;99.90
16781;DHT22;8507;50.056;8.248;2023-08-06T00:52:53;18.30;99.90
16781;DHT22;8507;50.056;8.248;2023-08-06T00:55:19;18.30;99.90
16781;DHT22;8507;50.056;8.248;2023-08-06T00:57:45;18.30;99.90
16781;DHT22;8507;50.056;8.248;2023-08-06T01:00:11;18.40;99.90
16781;DHT22;8507;50.056;8.248;2023-08-06T01:02:37;18.30;99.90
16781;DHT22;8507;50.056;8.248;2023-08-06T01:05:03;18.10;99.90
16781;DHT22;8507;50.056;8.248;2023-08-06T01:07:59;18.10;99.90
16781;DHT22;8507;50.056;8.248;2023-08-06T01:16:03;17.90;99.90
16781;DHT22;8507;50.056;8.248;2023-08-06T01:18:30;17.80;99.90
16781;DHT22;8507;50.056;8.248;2023-08-06T01:20:56;17.90;99.90
16781;DHT22;8507;50.056;8.248;2023-08-06T01:23:22;17.90;99.90
16781;DHT22;8507;50.056;8.248;2023-08-06T01:29:02;17.90;99.90
16781;DHT22;8507;50.056;8.248;2023-08-06T01:31:37;18.00;99.90
16781;DHT22;8507;50.056;8.248;2023-08-06T01:34:06;18.10;99.90
16781;DHT22;8507;50.056;8.248;2023-08-06T01:36:32;18.10;99.90
16781;DHT22;8507;50.056;8.248;2023-08-06T01:38:59;18.10;99.90
16781;DHT22;8507;50.056;8.248;2023-08-06T01:41:24;18.00;99.90
16781;DHT22;8507;50.056;8.248;2023-08-06T01:43:50;18.10;99.90
16781;DHT22;8507;50.056;8.248;2023-08-06T01:46:16;18.10;99.90
16781;DHT22;8507;50.056;8.248;2023-08-06T01:48:41;18.10;99.90
16781;DHT22;8507;50.056;8.248;2023-08-06T01:51:07;18.00;99.90
16781;DHT22;8507;50.056;8.248;2023-08-06T01:53:33;18.00;99.90
16781;DHT22;8507;50.056;8.248;2023-08-06T01:55:59;18.00;99.90
16781;DHT22;8507;50.056;8.248;2023-08-06T01:58:24;18.00;99.90
16781;DHT22;8507;50.056;8.248;2023-08-06T02:00:50;17.90;99.90
16781;DHT22;8507;50.056;8.248;2023-08-06T02:03:15;17.90;99.90
16781;DHT22;8507;50.056;8.248;2023-08-06T02:05:41;17.90;99.90
16781;DHT22;8507;50.056;8.248;2023-08-06T02:08:07;17.80;99.90
16781;DHT22;8507;50.056;8.248;2023-08-06T02:10:32;17.90;99.90
16781;DHT22;8507;50.056;8.248;2023-08-06T02:12:58;17.60;99.90
16781;DHT22;8507;50.056;8.248;2023-08-06T02:15:23;17.60;99.90
16781;DHT22;8507;50.056;8.248;2023-08-06T02:17:49;17.60;99.90
16781;DHT22;8507;50.056;8.248;2023-08-06T02:20:14;17.60;99.90
16781;DHT22;8507;50.056;8.248;2023-08-06T02:22:40;17.50;99.90
16781;DHT22;8507;50.056;8.248;2023-08-06T02:25:06;17.30;99.90
16781;DHT22;8507;50.056;8.248;2023-08-06T02:27:31;17.40;99.90
16781;DHT22;8507;50.056;8.248;2023-08-06T02:29:57;17.40;99.90
16781;DHT22;8507;50.056;8.248;2023-08-06T02:32:22;17.50;99.90
16781;DHT22;8507;50.056;8.248;2023-08-06T02:34:48;17.50;99.90
16781;DHT22;8507;50.056;8.248;2023-08-06T02:37:13;17.50;99.90
16781;DHT22;8507;50.056;8.248;2023-08-06T02:39:39;17.60;99.90
16781;DHT22;8507;50.056;8.248;2023-08-06T02:42:06;17.40;99.90
16781;DHT22;8507;50.056;8.248;2023-08-06T02:44:33;17.40;99.90
16781;DHT22;8507;50.056;8.248;2023-08-06T02:46:59;17.50;99.90
16781;DHT22;8507;50.056;8.248;2023-08-06T02:49:24;17.50;99.90
16781;DHT22;8507;50.056;8.248;2023-08-06T02:51:50;17.60;99.90
16781;DHT22;8507;50.056;8.248;2023-08-06T02:54:15;17.70;99.90
16781;DHT22;8507;50.056;8.248;2023-08-06T02:56:47;17.70;99.90
16781;DHT22;8507;50.056;8.248;2023-08-06T02:59:13;17.70;99.90
16781;DHT22;8507;50.056;8.248;2023-08-06T03:01:38;17.70;99.90
16781;DHT22;8507;50.056;8.248;2023-08-06T03:04:04;17.60;99.90
16781;DHT22;8507;50.056;8.248;2023-08-06T03:06:30;17.30;99.90
16781;DHT22;8507;50.056;8.248;2023-08-06T03:08:55;17.40;99.90
16781;DHT22;8507;50.056;8.248;2023-08-06T03:11:21;17.40;99.90
16781;DHT22;8507;50.056;8.248;2023-08-06T03:13:47;17.40;99.90
16781;DHT22;8507;50.056;8.248;2023-08-06T03:16:13;17.40;99.90
16781;DHT22;8507;50.056;8.248;2023-08-06T03:18:39;17.50;99.90
16781;DHT22;8507;50.056;8.248;2023-08-06T03:21:04;17.50;99.90
16781;DHT22;8507;50.056;8.248;2023-08-06T03:23:30;17.50;99.90
16781;DHT22;8507;50.056;8.248;2023-08-06T03:25:55;17.60;99.90
16781;DHT22;8507;50.056;8.248;2023-08-06T03:28:21;17.60;99.90
16781;DHT22;8507;50.056;8.248;2023-08-06T03:30:47;17.60;99.90
16781;DHT22;8507;50.056;8.248;2023-08-06T03:33:13;17.60;99.90
16781;DHT22;8507;50.056;8.248;2023-08-06T03:35:39;17.50;99.90
16781;DHT22;8507;50.056;8.248;2023-08-06T03:38:05;17.40;99.90
16781;DHT22;8507;50.056;8.248;2023-08-06T03:40:30;17.30;99.90
16781;DHT22;8507;50.056;8.248;2023-08-06T03:42:56;17.10;99.90
16781;DHT22;8507;50.056;8.248;2023-08-06T03:45:21;17.20;99.90
16781;DHT22;8507;50.056;8.248;2023-08-06T03:47:47;17.20;99.90
16781;DHT22;8507;50.056;8.248;2023-08-06T03:50:13;17.20;99.90
16781;DHT22;8507;50.056;8.248;2023-08-06T03:52:38;17.40;99.90
16781;DHT22;8507;50.056;8.248;2023-08-06T03:55:04;17.40;99.90
16781;DHT22;8507;50.056;8.248;2023-08-06T03:57:29;17.40;99.90
16781;DHT22;8507;50.056;8.248;2023-08-06T03:59:55;17.50;99.90
16781;DHT22;8507;50.056;8.248;2023-08-06T04:02:20;17.50;99.90
16781;DHT22;8507;50.056;8.248;2023-08-06T04:04:46;17.50;99.90
16781;DHT22;8507;50.056;8.248;2023-08-06T04:07:11;17.40;99.90
16781;DHT22;8507;50.056;8.248;2023-08-06T04:10:02;17.20;99.90
16781;DHT22;8507;50.056;8.248;2023-08-06T04:12:29;17.20;99.90
16781;DHT22;8507;50.056;8.248;2023-08-06T04:14:56;17.10;99.90
16781;DHT22;8507;50.056;8.248;2023-08-06T04:17:22;17.10;99.90
16781;DHT22;8507;50.056;8.248;2023-08-06T04:19:50;17.00;99.90
16781;DHT22;8507;50.056;8.248;2023-08-06T04:22:16;17.00;99.90
16781;DHT22;8507;50.056;8.248;2023-08-06T04:24:42;17.00;99.90
16781;DHT22;8507;50.056;8.248;2023-08-06T04:27:11;17.00;99.90
16781;DHT22;8507;50.056;8.248;2023-08-06T04:29:37;17.00;99.90
16781;DHT22;8507;50.056;8.248;2023-08-06T04:32:08;17.00;99.90
16781;DHT22;8507;50.056;8.248;2023-08-06T04:34:37;16.90;99.90
16781;DHT22;8507;50.056;8.248;2023-08-06T04:37:03;17.00;99.90
16781;DHT22;8507;50.056;8.248;2023-08-06T04:39:29;16.90;99.90
16781;DHT22;8507;50.056;8.248;2023-08-06T04:41:58;16.90;99.90
16781;DHT22;8507;50.056;8.248;2023-08-06T04:44:24;17.00;99.90
16781;DHT22;8507;50.056;8.248;2023-08-06T04:46:49;16.90;99.90
16781;DHT22;8507;50.056;8.248;2023-08-06T04:49:15;17.00;99.90
16781;DHT22;8507;50.056;8.248;2023-08-06T04:51:41;16.90;99.90
16781;DHT22;8507;50.056;8.248;2023-08-06T04:54:06;16.90;99.90
16781;DHT22;8507;50.056;8.248;2023-08-06T04:56:32;17.00;99.90
16781;DHT22;8507;50.056;8.248;2023-08-06T04:58:58;16.90;99.90
16781;DHT22;8507;50.056;8.248;2023-08-06T05:01:24;16.90;99.90
16781;DHT22;8507;50.056;8.248;2023-08-06T05:03:50;17.00;99.90
16781;DHT22;8507;50.056;8.248;2023-08-06T05:06:15;16.90;99.90
16781;DHT22;8507;50.056;8.248;2023-08-06T05:08:41;16.90;99.90
16781;DHT22;8507;50.056;8.248;2023-08-06T05:11:06;17.00;99.90
16781;DHT22;8507;50.056;8.248;2023-08-06T05:13:32;17.00;99.90
16781;DHT22;8507;50.056;8.248;2023-08-06T05:15:58;17.10;99.90
16781;DHT22;8507;50.056;8.248;2023-08-06T05:18:23;17.10;99.90
16781;DHT22;8507;50.056;8.248;2023-08-06T05:20:49;17.10;99.90
16781;DHT22;8507;50.056;8.248;2023-08-06T05:23:15;17.00;99.90
16781;DHT22;8507;50.056;8.248;2023-08-06T05:25:40;17.10;99.90
16781;DHT22;8507;50.056;8.248;2023-08-06T05:28:06;17.10;99.90
16781;DHT22;8507;50.056;8.248;2023-08-06T05:30:32;17.10;99.90
16781;DHT22;8507;50.056;8.248;2023-08-06T05:32:57;17.20;99.90
16781;DHT22;8507;50.056;8.248;2023-08-06T05:35:23;17.20;99.90
16781;DHT22;8507;50.056;8.248;2023-08-06T05:37:53;17.20;99.90
16781;DHT22;8507;50.056;8.248;2023-08-06T05:40:18;17.10;99.90
16781;DHT22;8507;50.056;8.248;2023-08-06T05:42:44;17.00;99.90
16781;DHT22;8507;50.056;8.248;2023-08-06T05:45:10;17.10;99.90
16781;DHT22;8507;50.056;8.248;2023-08-06T05:47:35;17.10;99.90
16781;DHT22;8507;50.056;8.248;2023-08-06T05:50:01;17.20;99.90
16781;DHT22;8507;50.056;8.248;2023-08-06T05:52:26;17.20;99.90
16781;DHT22;8507;50.056;8.248;2023-08-06T05:54:52;17.20;99.90
16781;DHT22;8507;50.056;8.248;2023-08-06T05:57:17;17.10;99.90
16781;DHT22;8507;50.056;8.248;2023-08-06T05:59:43;17.00;99.90
16781;DHT22;8507;50.056;8.248;2023-08-06T06:02:09;17.00;99.90
16781;DHT22;8507;50.056;8.248;2023-08-06T06:04:34;16.90;99.90
16781;DHT22;8507;50.056;8.248;2023-08-06T06:07:00;16.90;99.90
16781;DHT22;8507;50.056;8.248;2023-08-06T06:09:25;16.90;99.90
16781;DHT22;8507;50.056;8.248;2023-08-06T06:11:52;16.90;99.90
16781;DHT22;8507;50.056;8.248;2023-08-06T06:14:18;17.00;99.90
16781;DHT22;8507;50.056;8.248;2023-08-06T06:16:45;16.90;99.90
16781;DHT22;8507;50.056;8.248;2023-08-06T06:19:11;17.00;99.90
16781;DHT22;8507;50.056;8.248;2023-08-06T06:21:37;16.90;99.90
16781;DHT22;8507;50.056;8.248;2023-08-06T06:24:04;17.00;99.90
16781;DHT22;8507;50.056;8.248;2023-08-06T06:26:30;17.00;99.90
16781;DHT22;8507;50.056;8.248;2023-08-06T06:28:56;17.00;99.90
16781;DHT22;8507;50.056;8.248;2023-08-06T06:31:21;16.90;99.90
16781;DHT22;8507;50.056;8.248;2023-08-06T06:33:47;16.90;99.90
16781;DHT22;8507;50.056;8.248;2023-08-06T06:36:13;16.90;99.90
16781;DHT22;8507;50.056;8.248;2023-08-06T06:38:38;16.70;99.90
16781;DHT22;8507;50.056;8.248;2023-08-06T06:41:04;16.80;99.90
16781;DHT22;8507;50.056;8.248;2023-08-06T06:43:29;16.70;99.90
16781;DHT22;8507;50.056;8.248;2023-08-06T06:45:59;16.80;99.90
16781;DHT22;8507;50.056;8.248;2023-08-06T06:48:30;16.70;99.90
16781;DHT22;8507;50.056;8.248;2023-08-06T06:50:56;16.80;99.90
16781;DHT22;8507;50.056;8.248;2023-08-06T06:53:23;16.80;99.90
16781;DHT22;8507;50.056;8.248;2023-08-06T06:55:56;16.80;99.90
16781;DHT22;8507;50.056;8.248;2023-08-06T06:58:22;16.90;99.90
16781;DHT22;8507;50.056;8.248;2023-08-06T07:00:48;17.00;99.90
16781;DHT22;8507;50.056;8.248;2023-08-06T07:03:15;17.00;99.90
16781;DHT22;8507;50.056;8.248;2023-08-06T07:05:40;17.10;99.90
16781;DHT22;8507;50.056;8.248;2023-08-06T07:08:06;17.10;99.90
16781;DHT22;8507;50.056;8.248;2023-08-06T07:10:31;17.10;99.90
16781;DHT22;8507;50.056;8.248;2023-08-06T07:12:57;17.20;99.90
16781;DHT22;8507;50.056;8.248;2023-08-06T07:15:23;17.30;99.90
16781;DHT22;8507;50.056;8.248;2023-08-06T07:17:48;17.40;99.90
16781;DHT22;8507;50.056;8.248;2023-08-06T07:20:14;17.50;99.90
16781;DHT22;8507;50.056;8.248;2023-08-06T07:22:39;17.50;99.90
16781;DHT22;8507;50.056;8.248;2023-08-06T07:25:05;17.40;99.90
16781;DHT22;8507;50.056;8.248;2023-08-06T07:27:32;17.40;99.90
16781;DHT22;8507;50.056;8.248;2023-08-06T07:29:57;17.40;99.90
16781;DHT22;8507;50.056;8.248;2023-08-06T07:32:23;17.40;99.90
16781;DHT22;8507;50.056;8.248;2023-08-06T07:34:49;17.50;99.90
16781;DHT22;8507;50.056;8.248;2023-08-06T07:37:15;17.60;99.90
16781;DHT22;8507;50.056;8.248;2023-08-06T07:39:40;17.80;99.90
16781;DHT22;8507;50.056;8.248;2023-08-06T07:42:07;17.90;99.90
16781;DHT22;8507;50.056;8.248;2023-08-06T07:44:33;18.00;99.90
16781;DHT22;8507;50.056;8.248;2023-08-06T07:46:58;18.10;99.90
16781;DHT22;8507;50.056;8.248;2023-08-06T07:49:24;18.20;99.90
16781;DHT22;8507;50.056;8.248;2023-08-06T07:51:49;18.20;99.90
16781;DHT22;8507;50.056;8.248;2023-08-06T07:54:17;18.20;99.90
16781;DHT22;8507;50.056;8.248;2023-08-06T07:56:42;18.30;99.90
16781;DHT22;8507;50.056;8.248;2023-08-06T07:59:08;18.30;99.90
16781;DHT22;8507;50.056;8.248;2023-08-06T08:01:34;18.40;99.90
16781;DHT22;8507;50.056;8.248;2023-08-06T08:04:00;18.50;99.90
16781;DHT22;8507;50.056;8.248;2023-08-06T08:06:25;18.60;99.90
16781;DHT22;8507;50.056;8.248;2023-08-06T08:08:51;18.70;99.90
16781;DHT22;8507;50.056;8.248;2023-08-06T08:11:17;18.90;99.90
16781;DHT22;8507;50.056;8.248;2023-08-06T08:13:43;19.10;99.90
16781;DHT22;8507;50.056;8.248;2023-08-06T08:16:09;19.40;99.90
16781;DHT22;8507;50.056;8.248;2023-08-06T08:18:34;19.60;99.90
16781;DHT22;8507;50.056;8.248;2023-08-06T08:21:00;19.70;99.90
16781;DHT22;8507;50.056;8.248;2023-08-06T08:23:26;19.80;99.90
16781;DHT22;8507;50.056;8.248;2023-08-06T08:25:51;19.60;99.90
16781;DHT22;8507;50.056;8.248;2023-08-06T08:28:17;19.70;99.90
16781;DHT22;8507;50.056;8.248;2023-08-06T08:30:43;19.60;99.90
16781;DHT22;8507;50.056;8.248;2023-08-06T08:33:08;19.40;99.90
16781;DHT22;8507;50.056;8.248;2023-08-06T08:35:34;19.30;99.90
16781;DHT22;8507;50.056;8.248;2023-08-06T08:38:01;19.30;99.90
16781;DHT22;8507;50.056;8.248;2023-08-06T08:40:33;19.40;99.90
16781;DHT22;8507;50.056;8.248;2023-08-06T08:43:02;19.50;99.90
16781;DHT22;8507;50.056;8.248;2023-08-06T08:45:29;19.70;99.90
16781;DHT22;8507;50.056;8.248;2023-08-06T08:47:55;20.00;99.90
16781;DHT22;8507;50.056;8.248;2023-08-06T08:50:21;20.30;99.90
16781;DHT22;8507;50.056;8.248;2023-08-06T08:52:47;20.60;99.90
16781;DHT22;8507;50.056;8.248;2023-08-06T08:55:16;20.70;99.90
16781;DHT22;8507;50.056;8.248;2023-08-06T08:57:42;20.80;99.90
16781;DHT22;8507;50.056;8.248;2023-08-06T09:00:08;21.10;99.90
16781;DHT22;8507;50.056;8.248;2023-08-06T09:02:33;21.40;99.90
16781;DHT22;8507;50.056;8.248;2023-08-06T09:05:00;21.50;99.90
16781;DHT22;8507;50.056;8.248;2023-08-06T09:07:31;21.20;99.90
16781;DHT22;8507;50.056;8.248;2023-08-06T09:09:59;21.40;99.90
16781;DHT22;8507;50.056;8.248;2023-08-06T09:12:26;21.50;99.90
16781;DHT22;8507;50.056;8.248;2023-08-06T09:14:52;21.50;99.90
16781;DHT22;8507;50.056;8.248;2023-08-06T09:17:18;21.40;99.90
16781;DHT22;8507;50.056;8.248;2023-08-06T09:19:47;21.30;99.90
16781;DHT22;8507;50.056;8.248;2023-08-06T09:22:13;21.60;99.90
16781;DHT22;8507;50.056;8.248;2023-08-06T09:24:41;22.00;99.90
16781;DHT22;8507;50.056;8.248;2023-08-06T09:27:14;21.60;99.90
16781;DHT22;8507;50.056;8.248;2023-08-06T09:29:44;21.60;99.90
16781;DHT22;8507;50.056;8.248;2023-08-06T09:32:11;21.70;99.90
16781;DHT22;8507;50.056;8.248;2023-08-06T09:34:39;21.20;99.90
16781;DHT22;8507;50.056;8.248;2023-08-06T09:37:05;20.50;99.90
16781;DHT22;8507;50.056;8.248;2023-08-06T09:39:30;20.30;99.90
16781;DHT22;8507;50.056;8.248;2023-08-06T09:41:57;19.80;99.90
16781;DHT22;8507;50.056;8.248;2023-08-06T09:44:25;19.40;99.90
16781;DHT22;8507;50.056;8.248;2023-08-06T09:46:56;19.20;99.90
16781;DHT22;8507;50.056;8.248;2023-08-06T09:49:41;19.10;99.90
16781;DHT22;8507;50.056;8.248;2023-08-06T09:52:12;18.80;99.90
16781;DHT22;8507;50.056;8.248;2023-08-06T09:54:38;18.70;99.90
16781;DHT22;8507;50.056;8.248;2023-08-06T09:57:03;18.60;99.90
16781;DHT22;8507;50.056;8.248;2023-08-06T09:59:30;18.80;99.90
16781;DHT22;8507;50.056;8.248;2023-08-06T10:01:57;18.90;99.90
16781;DHT22;8507;50.056;8.248;2023-08-06T10:04:24;19.00;99.90
16781;DHT22;8507;50.056;8.248;2023-08-06T10:06:50;19.20;99.90
16781;DHT22;8507;50.056;8.248;2023-08-06T10:09:16;19.40;99.90
16781;DHT22;8507;50.056;8.248;2023-08-06T10:11:52;19.80;99.90
16781;DHT22;8507;50.056;8.248;2023-08-06T10:14:35;20.10;99.90
16781;DHT22;8507;50.056;8.248;2023-08-06T10:17:02;20.80;99.90
16781;DHT22;8507;50.056;8.248;2023-08-06T10:19:29;20.90;99.90
16781;DHT22;8507;50.056;8.248;2023-08-06T10:24:54;20.20;99.90
16781;DHT22;8507;50.056;8.248;2023-08-06T10:30:09;20.20;99.90
16781;DHT22;8507;50.056;8.248;2023-08-06T10:32:47;20.40;99.90
16781;DHT22;8507;50.056;8.248;2023-08-06T10:35:31;20.60;99.90
16781;DHT22;8507;50.056;8.248;2023-08-06T10:38:17;21.30;99.90
16781;DHT22;8507;50.056;8.248;2023-08-06T10:40:49;22.00;99.90
16781;DHT22;8507;50.056;8.248;2023-08-06T10:45:59;20.70;99.90
16781;DHT22;8507;50.056;8.248;2023-08-06T10:48:34;20.10;99.90
16781;DHT22;8507;50.056;8.248;2023-08-06T10:51:00;19.80;99.90
16781;DHT22;8507;50.056;8.248;2023-08-06T10:53:26;19.70;99.90
16781;DHT22;8507;50.056;8.248;2023-08-06T10:55:52;19.60;99.90
16781;DHT22;8507;50.056;8.248;2023-08-06T10:58:17;19.80;99.90
16781;DHT22;8507;50.056;8.248;2023-08-06T11:00:43;20.00;99.90
16781;DHT22;8507;50.056;8.248;2023-08-06T11:03:09;20.20;99.90
16781;DHT22;8507;50.056;8.248;2023-08-06T11:05:35;20.70;99.90
16781;DHT22;8507;50.056;8.248;2023-08-06T11:08:01;20.60;99.90
16781;DHT22;8507;50.056;8.248;2023-08-06T11:10:27;20.20;99.90
16781;DHT22;8507;50.056;8.248;2023-08-06T11:12:52;19.40;99.90
16781;DHT22;8507;50.056;8.248;2023-08-06T11:15:20;18.80;99.90
16781;DHT22;8507;50.056;8.248;2023-08-06T11:17:46;18.40;99.90
16781;DHT22;8507;50.056;8.248;2023-08-06T11:20:12;18.10;99.90
16781;DHT22;8507;50.056;8.248;2023-08-06T11:22:38;18.00;99.90
16781;DHT22;8507;50.056;8.248;2023-08-06T11:25:05;18.10;99.90
16781;DHT22;8507;50.056;8.248;2023-08-06T11:27:31;18.00;99.90
16781;DHT22;8507;50.056;8.248;2023-08-06T11:29:56;17.90;99.90
16781;DHT22;8507;50.056;8.248;2023-08-06T11:32:22;18.00;99.90
16781;DHT22;8507;50.056;8.248;2023-08-06T11:34:47;17.90;99.90
16781;DHT22;8507;50.056;8.248;2023-08-06T11:37:13;17.90;99.90
16781;DHT22;8507;50.056;8.248;2023-08-06T11:39:39;17.90;99.90
16781;DHT22;8507;50.056;8.248;2023-08-06T11:42:09;17.80;99.90
16781;DHT22;8507;50.056;8.248;2023-08-06T11:44:37;17.70;99.90
16781;DHT22;8507;50.056;8.248;2023-08-06T11:47:04;17.70;99.90
16781;DHT22;8507;50.056;8.248;2023-08-06T11:49:49;17.60;99.90
16781;DHT22;8507;50.056;8.248;2023-08-06T11:52:21;17.40;99.90
16781;DHT22;8507;50.056;8.248;2023-08-06T11:55:03;17.40;99.90
16781;DHT22;8507;50.056;8.248;2023-08-06T11:57:32;17.40;99.90
16781;DHT22;8507;50.056;8.248;2023-08-06T12:00:02;17.40;99.90
16781;DHT22;8507;50.056;8.248;2023-08-06T12:02:33;17.50;99.90
16781;DHT22;8507;50.056;8.248;2023-08-06T12:05:12;17.60;99.90
16781;DHT22;8507;50.056;8.248;2023-08-06T12:07:40;17.50;99.90
16781;DHT22;8507;50.056;8.248;2023-08-06T12:10:06;17.60;99.90
16781;DHT22;8507;50.056;8.248;2023-08-06T12:12:31;17.70;99.90
16781;DHT22;8507;50.056;8.248;2023-08-06T12:14:57;17.60;99.90
16781;DHT22;8507;50.056;8.248;2023-08-06T12:17:24;17.60;99.90
16781;DHT22;8507;50.056;8.248;2023-08-06T12:19:49;17.70;99.90
16781;DHT22;8507;50.056;8.248;2023-08-06T12:22:15;17.60;99.90
16781;DHT22;8507;50.056;8.248;2023-08-06T12:24:42;17.70;99.90
16781;DHT22;8507;50.056;8.248;2023-08-06T12:27:08;17.80;99.90
16781;DHT22;8507;50.056;8.248;2023-08-06T12:29:34;18.00;99.90
16781;DHT22;8507;50.056;8.248;2023-08-06T12:31:59;18.00;99.90
16781;DHT22;8507;50.056;8.248;2023-08-06T12:34:25;18.10;99.90
16781;DHT22;8507;50.056;8.248;2023-08-06T12:36:50;17.90;99.90
16781;DHT22;8507;50.056;8.248;2023-08-06T12:39:16;17.80;99.90
16781;DHT22;8507;50.056;8.248;2023-08-06T12:41:41;17.60;99.90
16781;DHT22;8507;50.056;8.248;2023-08-06T12:44:09;17.30;99.90
16781;DHT22;8507;50.056;8.248;2023-08-06T12:46:34;17.20;99.90
16781;DHT22;8507;50.056;8.248;2023-08-06T12:49:00;17.20;99.90
16781;DHT22;8507;50.056;8.248;2023-08-06T12:51:25;17.10;99.90
16781;DHT22;8507;50.056;8.248;2023-08-06T12:53:51;17.20;99.90
16781;DHT22;8507;50.056;8.248;2023-08-06T12:56:16;17.10;99.90
16781;DHT22;8507;50.056;8.248;2023-08-06T12:58:42;17.10;99.90
16781;DHT22;8507;50.056;8.248;2023-08-06T13:01:07;17.10;99.90
16781;DHT22;8507;50.056;8.248;2023-08-06T13:03:33;17.10;99.90
16781;DHT22;8507;50.056;8.248;2023-08-06T13:05:59;17.20;99.90
16781;DHT22;8507;50.056;8.248;2023-08-06T13:08:24;17.20;99.90
16781;DHT22;8507;50.056;8.248;2023-08-06T13:10:50;17.20;99.90
16781;DHT22;8507;50.056;8.248;2023-08-06T13:13:15;17.10;99.90
16781;DHT22;8507;50.056;8.248;2023-08-06T13:15:41;17.10;99.90
16781;DHT22;8507;50.056;8.248;2023-08-06T13:18:06;17.10;99.90
16781;DHT22;8507;50.056;8.248;2023-08-06T13:20:32;17.00;99.90
16781;DHT22;8507;50.056;8.248;2023-08-06T13:22:59;17.00;99.90
16781;DHT22;8507;50.056;8.248;2023-08-06T13:25:26;17.00;99.90
16781;DHT22;8507;50.056;8.248;2023-08-06T13:27:53;16.90;99.90
16781;DHT22;8507;50.056;8.248;2023-08-06T13:30:20;16.90;99.90
16781;DHT22;8507;50.056;8.248;2023-08-06T13:32:45;17.00;99.90
16781;DHT22;8507;50.056;8.248;2023-08-06T13:35:11;17.10;99.90
16781;DHT22;8507;50.056;8.248;2023-08-06T13:37:37;17.10;99.90
16781;DHT22;8507;50.056;8.248;2023-08-06T13:40:02;17.20;99.90
16781;DHT22;8507;50.056;8.248;2023-08-06T13:42:28;17.30;99.90
16781;DHT22;8507;50.056;8.248;2023-08-06T13:44:54;17.40;99.90
16781;DHT22;8507;50.056;8.248;2023-08-06T13:47:27;17.50;99.90
16781;DHT22;8507;50.056;8.248;2023-08-06T13:49:53;17.60;99.90
16781;DHT22;8507;50.056;8.248;2023-08-06T13:52:18;17.80;99.90
16781;DHT22;8507;50.056;8.248;2023-08-06T13:54:43;17.90;99.90
16781;DHT22;8507;50.056;8.248;2023-08-06T13:57:09;17.90;99.90
16781;DHT22;8507;50.056;8.248;2023-08-06T13:59:34;17.90;99.90
16781;DHT22;8507;50.056;8.248;2023-08-06T14:02:00;18.00;99.90
16781;DHT22;8507;50.056;8.248;2023-08-06T14:04:26;17.90;99.90
16781;DHT22;8507;50.056;8.248;2023-08-06T14:06:51;17.80;99.90
16781;DHT22;8507;50.056;8.248;2023-08-06T14:09:17;17.80;99.90
16781;DHT22;8507;50.056;8.248;2023-08-06T14:11:44;17.80;99.90
16781;DHT22;8507;50.056;8.248;2023-08-06T14:14:10;17.70;99.90
16781;DHT22;8507;50.056;8.248;2023-08-06T14:16:36;17.70;99.90
16781;DHT22;8507;50.056;8.248;2023-08-06T14:19:02;17.70;99.90
16781;DHT22;8507;50.056;8.248;2023-08-06T14:21:27;17.70;99.90
16781;DHT22;8507;50.056;8.248;2023-08-06T14:23:53;17.70;99.90
16781;DHT22;8507;50.056;8.248;2023-08-06T14:26:18;17.60;99.90
16781;DHT22;8507;50.056;8.248;2023-08-06T14:28:44;17.60;99.90
16781;DHT22;8507;50.056;8.248;2023-08-06T14:31:09;17.50;99.90
16781;DHT22;8507;50.056;8.248;2023-08-06T14:33:35;17.50;99.90
16781;DHT22;8507;50.056;8.248;2023-08-06T14:36:00;17.40;99.90
16781;DHT22;8507;50.056;8.248;2023-08-06T14:38:27;17.40;99.90
16781;DHT22;8507;50.056;8.248;2023-08-06T14:40:52;17.30;99.90
16781;DHT22;8507;50.056;8.248;2023-08-06T14:43:18;17.10;99.90
16781;DHT22;8507;50.056;8.248;2023-08-06T14:45:45;17.10;99.90
16781;DHT22;8507;50.056;8.248;2023-08-06T14:48:10;17.10;99.90
16781;DHT22;8507;50.056;8.248;2023-08-06T14:50:36;17.10;99.90
16781;DHT22;8507;50.056;8.248;2023-08-06T14:53:02;17.10;99.90
16781;DHT22;8507;50.056;8.248;2023-08-06T14:55:28;17.00;99.90
16781;DHT22;8507;50.056;8.248;2023-08-06T14:57:54;17.10;99.90
16781;DHT22;8507;50.056;8.248;2023-08-06T15:00:20;17.10;99.90
16781;DHT22;8507;50.056;8.248;2023-08-06T15:02:46;17.00;99.90
16781;DHT22;8507;50.056;8.248;2023-08-06T15:05:12;17.00;99.90
16781;DHT22;8507;50.056;8.248;2023-08-06T15:07:38;17.00;99.90
16781;DHT22;8507;50.056;8.248;2023-08-06T15:10:06;17.00;99.90
16781;DHT22;8507;50.056;8.248;2023-08-06T15:12:32;17.10;99.90
16781;DHT22;8507;50.056;8.248;2023-08-06T15:14:58;17.10;99.90
16781;DHT22;8507;50.056;8.248;2023-08-06T15:17:26;17.10;99.90
16781;DHT22;8507;50.056;8.248;2023-08-06T15:19:52;17.10;99.90
16781;DHT22;8507;50.056;8.248;2023-08-06T15:22:17;17.20;99.90
16781;DHT22;8507;50.056;8.248;2023-08-06T15:24:43;17.20;99.90
16781;DHT22;8507;50.056;8.248;2023-08-06T15:27:09;17.30;99.90
16781;DHT22;8507;50.056;8.248;2023-08-06T15:29:35;17.20;99.90
16781;DHT22;8507;50.056;8.248;2023-08-06T15:32:01;17.20;99.90
16781;DHT22;8507;50.056;8.248;2023-08-06T15:34:26;17.20;99.90
16781;DHT22;8507;50.056;8.248;2023-08-06T15:36:52;17.20;99.90
16781;DHT22;8507;50.056;8.248;2023-08-06T15:39:17;17.20;99.90
16781;DHT22;8507;50.056;8.248;2023-08-06T15:41:43;17.10;99.90
16781;DHT22;8507;50.056;8.248;2023-08-06T15:44:09;17.00;99.90
16781;DHT22;8507;50.056;8.248;2023-08-06T15:46:34;17.00;99.90
16781;DHT22;8507;50.056;8.248;2023-08-06T15:49:02;16.90;99.90
16781;DHT22;8507;50.056;8.248;2023-08-06T15:51:27;16.90;99.90
16781;DHT22;8507;50.056;8.248;2023-08-06T15:53:53;16.90;99.90
16781;DHT22;8507;50.056;8.248;2023-08-06T15:56:18;16.90;99.90
16781;DHT22;8507;50.056;8.248;2023-08-06T15:58:44;16.90;99.90